Time;durP1;ratioP1;P1;durP2;ratioP2;P2;SDS_P1;SDS_P2;PMS_P1;PMS_P2;Temp;Humidity;BMP_temperature;BMP_pressure;BME280_temperature;BME280_humidity;BME280_pressure;Samples;Min_cycle;Max_cycle;Signal;HPM_P1;HPM_P2
2023/04/01 00:00:54;;;;;;;0.70;0.30;;;13.70;61.90;13.60;95132.00;;;;5129982;27;20300;-79
2023/04/01 00:03:22;;;;;;;0.20;0.20;;;13.70;61.80;13.60;95135.00;;;;5138932;27;20624;-79
2023/04/01 00:05:50;;;;;;;1.10;0.30;;;13.70;61.90;13.60;95132.00;;;;5137420;27;20214;-78
2023/04/01 00:08:19;;;;;;;0.10;0.07;;;13.70;61.90;13.60;95137.00;;;;5086098;28;20690;-79
2023/04/01 00:10:46;;;;;;;0.50;0.20;;;13.70;61.90;13.60;95132.00;;;;5098543;28;20219;-78
2023/04/01 00:13:14;;;;;;;0.30;0.10;;;13.70;61.90;13.60;95143.00;;;;5112634;27;20272;-79
2023/04/01 00:15:42;;;;;;;0.30;0.10;;;13.70;62.00;13.60;95140.00;;;;5140433;27;20193;-79
2023/04/01 00:18:10;;;;;;;0.17;0.10;;;13.70;61.90;13.50;95147.00;;;;5140165;27;20189;-78
2023/04/01 00:20:38;;;;;;;0.23;0.20;;;13.60;61.80;13.50;95139.00;;;;5138420;27;20238;-79
2023/04/01 00:23:06;;;;;;;0.53;0.20;;;13.60;61.80;13.50;95140.00;;;;5114631;27;20281;-79
2023/04/01 00:25:35;;;;;;;0.37;0.33;;;13.60;61.80;13.50;95146.00;;;;5103869;28;20210;-80
2023/04/01 00:28:02;;;;;;;1.33;0.20;;;13.60;61.80;13.40;95151.00;;;;5120553;28;20216;-79
2023/04/01 00:30:30;;;;;;;0.37;0.20;;;13.60;61.80;13.40;95145.00;;;;5122862;28;20224;-79
2023/04/01 00:33:00;;;;;;;0.87;0.30;;;13.50;61.80;13.40;95146.00;;;;5101835;28;20205;-79
2023/04/01 00:35:28;;;;;;;0.50;0.13;;;13.50;61.80;13.30;95147.00;;;;5103716;28;20230;-79
2023/04/01 00:37:56;;;;;;;0.37;0.20;;;13.50;61.90;13.30;95148.00;;;;5116117;27;20263;-78
2023/04/01 00:40:31;;;;;;;0.47;0.17;;;13.40;61.80;13.20;95153.00;;;;5121341;28;20278;-80
2023/04/01 00:43:03;;;;;;;0.10;0.10;;;13.40;61.80;13.20;95148.00;;;;5118650;28;20207;-78
2023/04/01 00:45:35;;;;;;;0.97;0.20;;;13.40;61.90;13.20;95142.00;;;;5134744;28;20701;-79
2023/04/01 00:48:08;;;;;;;0.50;0.33;;;13.40;62.10;13.20;95143.00;;;;5125589;28;20217;-79
2023/04/01 00:50:37;;;;;;;0.53;0.20;;;13.40;62.20;13.20;95144.00;;;;5128846;28;20296;-79
2023/04/01 00:53:06;;;;;;;1.90;0.20;;;13.30;62.30;13.20;95141.00;;;;5097714;28;20599;-79
2023/04/01 00:55:38;;;;;;;0.63;0.37;;;13.30;62.30;13.20;95144.00;;;;5112153;28;20285;-80
2023/04/01 00:58:14;;;;;;;0.87;0.30;;;13.30;62.40;13.20;95138.00;;;;5113603;28;20204;-79
2023/04/01 01:00:42;;;;;;;0.63;0.50;;;13.30;62.40;13.20;95149.00;;;;5114249;28;20214;-79
2023/04/01 01:03:12;;;;;;;0.90;0.30;;;13.30;62.50;13.20;95138.00;;;;5128899;27;20194;-79
2023/04/01 01:06:00;;;;;;;0.20;0.20;;;13.30;62.70;13.20;95134.00;;;;5128792;27;20606;-79
2023/04/01 01:08:49;;;;;;;0.97;0.40;;;13.30;62.90;13.20;95137.00;;;;5113230;28;20285;-79
2023/04/01 01:11:27;;;;;;;0.40;0.20;;;13.30;62.90;13.20;95137.00;;;;5125241;27;20733;-79
2023/04/01 01:14:05;;;;;;;0.87;0.23;;;13.30;62.80;13.20;95131.00;;;;5115641;28;20243;-80
2023/04/01 01:16:43;;;;;;;0.10;0.10;;;13.30;62.90;13.20;95125.00;;;;5135187;27;20204;-80
2023/04/01 01:19:36;;;;;;;0.87;0.30;;;13.30;63.00;13.20;95131.00;;;;5137931;27;20217;-80
2023/04/01 01:22:30;;;;;;;0.70;0.30;;;13.30;63.00;13.20;95128.00;;;;5100813;27;20279;-79
2023/04/01 01:25:26;;;;;;;1.77;0.50;;;13.30;62.90;13.20;95124.00;;;;5125007;27;20281;-79
2023/04/01 01:28:13;;;;;;;0.20;0.10;;;13.30;62.90;13.20;95120.00;;;;5125513;27;20213;-79
2023/04/01 01:30:52;;;;;;;0.23;0.23;;;13.30;62.90;13.20;95119.00;;;;5123898;27;20241;-79
2023/04/01 01:34:02;;;;;;;1.07;0.40;;;13.30;62.80;13.20;95124.00;;;;5096974;28;20202;-79
2023/04/01 01:36:34;;;;;;;0.40;0.20;;;13.30;62.80;13.20;95120.00;;;;5112686;28;20269;-79
2023/04/01 01:39:07;;;;;;;1.00;0.37;;;13.30;62.80;13.20;95118.00;;;;5099044;27;20323;-79
2023/04/01 01:41:39;;;;;;;0.30;0.10;;;13.30;62.80;13.20;95119.00;;;;5116618;28;20293;-79
2023/04/01 01:44:13;;;;;;;0.43;0.10;;;13.30;62.80;13.20;95124.00;;;;5117049;27;20190;-80
2023/04/01 01:46:44;;;;;;;0.57;0.33;;;13.30;62.90;13.20;95118.00;;;;5117152;27;20242;-79
2023/04/01 01:49:14;;;;;;;1.20;0.30;;;13.30;62.90;13.20;95121.00;;;;5118018;27;20247;-79
2023/04/01 01:51:45;;;;;;;0.60;0.30;;;13.30;62.90;13.10;95107.00;;;;5137314;27;20198;-81
2023/04/01 01:54:14;;;;;;;1.07;0.40;;;13.30;62.90;13.10;95113.00;;;;5134992;27;20190;-78
2023/04/01 01:56:45;;;;;;;0.30;0.17;;;13.30;62.80;13.10;95101.00;;;;5118174;27;20273;-79
2023/04/01 01:59:16;;;;;;;0.40;0.20;;;13.20;62.80;13.10;95113.00;;;;5131334;27;20213;-80
2023/04/01 02:01:50;;;;;;;0.20;0.10;;;13.20;62.80;13.00;95105.00;;;;5135453;27;20285;-79
2023/04/01 02:04:20;;;;;;;0.40;0.20;;;13.20;62.90;13.00;95102.00;;;;5120116;27;20661;-79
2023/04/01 02:06:56;;;;;;;0.70;0.20;;;13.20;63.00;13.00;95121.00;;;;5117875;27;20759;-80
2023/04/01 02:09:24;;;;;;;0.50;0.10;;;13.20;63.10;13.00;95102.00;;;;5116015;28;20220;-79
2023/04/01 02:11:56;;;;;;;0.10;0.10;;;13.20;63.20;13.00;95093.00;;;;5117353;28;20259;-79
2023/04/01 02:14:27;;;;;;;1.03;0.40;;;13.10;63.10;13.00;95110.00;;;;5116910;27;20735;-80
2023/04/01 02:16:59;;;;;;;2.73;0.40;;;13.10;63.10;13.00;95098.00;;;;5123480;27;20748;-80
2023/04/01 02:19:32;;;;;;;0.87;0.20;;;13.10;63.10;12.90;95113.00;;;;5136450;27;20216;-79
2023/04/01 02:22:05;;;;;;;0.47;0.10;;;13.10;63.20;12.90;95109.00;;;;5120499;27;20219;-79
2023/04/01 02:24:36;;;;;;;0.87;0.20;;;13.10;63.30;12.90;95102.00;;;;5096316;28;20711;-79
2023/04/01 02:27:05;;;;;;;1.63;0.20;;;13.10;63.20;12.90;95107.00;;;;5124145;27;20676;-79
2023/04/01 02:29:33;;;;;;;0.63;0.20;;;13.10;63.30;12.90;95122.00;;;;5124250;27;20215;-79
2023/04/01 02:32:01;;;;;;;0.83;0.23;;;13.10;63.30;12.90;95123.00;;;;5136583;27;20202;-79
2023/04/01 02:34:29;;;;;;;1.87;0.30;;;13.10;63.30;12.90;95130.00;;;;5138848;27;20258;-79
2023/04/01 02:36:58;;;;;;;0.33;0.30;;;13.00;63.20;12.90;95130.00;;;;5136433;27;20289;-79
2023/04/01 02:39:27;;;;;;;0.50;0.10;;;13.00;63.20;12.80;95129.00;;;;5119023;27;20305;-78
2023/04/01 02:41:54;;;;;;;0.70;0.20;;;13.00;63.30;12.80;95124.00;;;;5137807;27;20208;-80
2023/04/01 02:44:22;;;;;;;0.70;0.20;;;13.00;63.30;12.80;95139.00;;;;5134978;27;20200;-78
2023/04/01 02:46:49;;;;;;;0.53;0.20;;;13.00;63.40;12.80;95137.00;;;;5106493;28;20223;-78
2023/04/01 02:49:17;;;;;;;0.23;0.10;;;13.00;63.40;12.80;95137.00;;;;5098715;28;20207;-78
2023/04/01 02:51:44;;;;;;;0.30;0.30;;;13.00;63.40;12.80;95144.00;;;;5117911;27;20638;-78
2023/04/01 02:54:12;;;;;;;0.40;0.20;;;13.00;63.30;12.80;95135.00;;;;5140764;27;20716;-79
2023/04/01 02:56:40;;;;;;;1.20;0.40;;;12.90;63.40;12.80;95135.00;;;;5138377;27;20250;-79
2023/04/01 02:59:08;;;;;;;0.30;0.20;;;12.90;63.40;12.80;95132.00;;;;5124142;27;20292;-79
2023/04/01 03:01:35;;;;;;;0.60;0.10;;;12.90;63.50;12.80;95136.00;;;;5142231;27;20360;-79
2023/04/01 03:04:03;;;;;;;1.43;0.10;;;12.90;63.50;12.80;95148.00;;;;5141555;27;20221;-79
2023/04/01 03:06:30;;;;;;;0.37;0.23;;;12.90;63.50;12.80;95147.00;;;;5139082;27;20717;-80
2023/04/01 03:08:58;;;;;;;0.43;0.40;;;12.90;63.50;12.80;95138.00;;;;5120545;28;20309;-79
2023/04/01 03:11:26;;;;;;;0.43;0.30;;;12.90;63.50;12.80;95142.00;;;;5118723;27;20715;-78
2023/04/01 03:13:54;;;;;;;1.03;0.30;;;12.90;63.50;12.80;95144.00;;;;5129860;27;20197;-78
2023/04/01 03:16:22;;;;;;;0.33;0.17;;;12.90;63.50;12.80;95144.00;;;;5134223;27;20251;-79
2023/04/01 03:18:52;;;;;;;0.50;0.30;;;12.90;63.50;12.80;95153.00;;;;5122328;27;20245;-80
2023/04/01 03:21:22;;;;;;;0.60;0.23;;;12.90;63.60;12.80;95154.00;;;;5125612;28;20256;-80
2023/04/01 03:23:50;;;;;;;0.30;0.20;;;12.90;63.50;12.80;95155.00;;;;5127661;28;20210;-80
2023/04/01 03:26:18;;;;;;;0.30;0.30;;;12.90;63.50;12.70;95157.00;;;;5129759;27;20215;-80
2023/04/01 03:28:46;;;;;;;0.90;0.37;;;12.90;63.50;12.70;95155.00;;;;5133113;27;20222;-79
2023/04/01 03:31:16;;;;;;;0.63;0.10;;;12.90;63.60;12.70;95163.00;;;;5104576;27;20597;-79
2023/04/01 03:33:44;;;;;;;0.20;0.10;;;12.90;64.40;12.70;95160.00;;;;5137235;27;20189;-79
2023/04/01 03:36:12;;;;;;;0.43;0.30;;;12.90;63.60;12.70;95155.00;;;;5124124;27;20238;-80
2023/04/01 03:38:42;;;;;;;0.80;0.20;;;12.90;63.70;12.70;95170.00;;;;5115235;28;20191;-79
2023/04/01 03:41:13;;;;;;;0.37;0.20;;;12.90;63.70;12.70;95159.00;;;;5129591;27;20239;-79
2023/04/01 03:43:40;;;;;;;0.20;0.20;;;12.80;63.70;12.70;95170.00;;;;5124073;27;20675;-79
2023/04/01 03:46:08;;;;;;;0.30;0.10;;;12.80;63.60;12.70;95168.00;;;;5119778;27;20899;-79
2023/04/01 03:48:37;;;;;;;0.33;0.10;;;12.80;63.60;12.70;95169.00;;;;5115457;27;20757;-79
2023/04/01 03:51:09;;;;;;;0.13;0.10;;;12.80;63.60;12.60;95161.00;;;;5104649;27;20280;-79
2023/04/01 03:53:37;;;;;;;0.27;0.00;;;12.80;63.60;12.60;95176.00;;;;5131342;27;20224;-80
2023/04/01 03:56:06;;;;;;;0.00;0.00;;;12.80;63.60;12.60;95162.00;;;;5112298;28;20302;-79
2023/04/01 03:58:33;;;;;;;0.20;0.10;;;12.80;63.60;12.50;95181.00;;;;5131094;27;20299;-79
2023/04/01 04:01:01;;;;;;;0.10;0.10;;;12.70;63.60;12.50;95174.00;;;;5121055;27;20702;-79
2023/04/01 04:03:28;;;;;;;0.17;0.10;;;12.70;63.60;12.50;95175.00;;;;5112593;27;20658;-79
2023/04/01 04:05:57;;;;;;;0.20;0.10;;;12.70;63.60;12.50;95191.00;;;;5116748;27;20282;-78
2023/04/01 04:08:26;;;;;;;0.43;0.10;;;12.70;63.70;12.50;95178.00;;;;5123007;27;20204;-80
2023/04/01 04:10:57;;;;;;;0.10;0.10;;;12.70;63.80;12.50;95180.00;;;;5117233;27;20294;-79
2023/04/01 04:13:25;;;;;;;0.10;0.10;;;12.70;63.80;12.50;95189.00;;;;5116235;28;20674;-80
2023/04/01 04:15:52;;;;;;;0.00;0.00;;;12.60;63.70;12.50;95184.00;;;;5117510;28;20726;-79
2023/04/01 04:18:19;;;;;;;0.20;0.10;;;12.60;63.80;12.50;95190.00;;;;5115223;28;20234;-79
2023/04/01 04:20:50;;;;;;;0.87;0.10;;;12.60;63.90;12.50;95197.00;;;;5110724;28;20226;-79
2023/04/01 04:23:20;;;;;;;0.20;0.10;;;12.60;63.80;12.50;95191.00;;;;5109066;27;20292;-79
2023/04/01 04:25:57;;;;;;;0.20;0.10;;;12.70;63.90;12.60;95196.00;;;;5135009;27;20265;-79
2023/04/01 04:28:26;;;;;;;0.00;0.00;;;12.70;64.00;12.60;95203.00;;;;5134948;27;20198;-80
2023/04/01 04:30:53;;;;;;;0.10;0.00;;;12.70;64.00;12.60;95204.00;;;;5135812;27;20206;-80
2023/04/01 04:33:20;;;;;;;0.13;0.00;;;12.70;63.90;12.60;95190.00;;;;5131490;27;20270;-80
2023/04/01 04:35:48;;;;;;;0.30;0.10;;;12.70;63.80;12.50;95184.00;;;;5118597;27;20225;-79
2023/04/01 04:38:20;;;;;;;0.43;0.20;;;12.60;63.70;12.50;95190.00;;;;5088108;28;20211;-79
2023/04/01 04:40:47;;;;;;;0.30;0.20;;;12.60;63.70;12.40;95187.00;;;;5092342;28;20301;-78
2023/04/01 04:43:17;;;;;;;0.67;0.07;;;12.60;63.80;12.40;95183.00;;;;5096725;28;20659;-78
2023/04/01 04:45:45;;;;;;;0.10;0.10;;;12.60;63.80;12.40;95193.00;;;;5132321;27;20291;-78
2023/04/01 04:48:18;;;;;;;0.10;0.10;;;12.60;63.80;12.40;95192.00;;;;5120319;27;20219;-79
2023/04/01 04:50:48;;;;;;;0.50;0.10;;;12.60;63.80;12.40;95198.00;;;;5117606;28;20308;-78
2023/04/01 04:53:16;;;;;;;0.10;0.10;;;12.60;64.00;12.40;95206.00;;;;5133307;28;20666;-78
2023/04/01 04:55:49;;;;;;;0.10;0.10;;;12.50;63.90;12.40;95194.00;;;;5111899;28;20201;-78
2023/04/01 04:58:17;;;;;;;0.27;0.10;;;12.50;64.10;12.40;95202.00;;;;5120873;28;20265;-78
2023/04/01 05:00:45;;;;;;;0.10;0.00;;;12.50;64.20;12.40;95208.00;;;;5126131;27;20234;-77
2023/04/01 05:03:14;;;;;;;0.60;0.20;;;12.50;64.30;12.50;95206.00;;;;5110837;28;20222;-78
2023/04/01 05:05:50;;;;;;;0.00;0.00;;;12.50;64.40;12.50;95215.00;;;;5105567;28;20238;-79
2023/04/01 05:08:18;;;;;;;0.33;0.20;;;12.60;64.50;12.50;95219.00;;;;5104219;28;20298;-78
2023/04/01 05:10:47;;;;;;;0.33;0.20;;;12.60;64.40;12.50;95211.00;;;;5131928;28;20220;-78
2023/04/01 05:13:15;;;;;;;0.37;0.30;;;12.60;64.50;12.50;95214.00;;;;5122898;27;20281;-79
2023/04/01 05:15:42;;;;;;;0.30;0.30;;;12.60;64.60;12.50;95214.00;;;;5113136;28;20271;-78
2023/04/01 05:18:09;;;;;;;0.37;0.20;;;12.60;64.60;12.50;95212.00;;;;5113580;28;20194;-79
2023/04/01 05:20:36;;;;;;;0.53;0.20;;;12.60;64.70;12.50;95215.00;;;;5120485;28;20213;-78
2023/04/01 05:23:04;;;;;;;0.10;0.10;;;12.60;64.70;12.60;95211.00;;;;5130709;27;20208;-78
2023/04/01 05:25:32;;;;;;;0.23;0.10;;;12.60;64.80;12.60;95217.00;;;;5134272;27;20194;-80
2023/04/01 05:28:01;;;;;;;0.10;0.10;;;12.60;64.80;12.70;95209.00;;;;5134918;28;20310;-81
2023/04/01 05:30:28;;;;;;;0.23;0.10;;;12.70;65.00;12.70;95206.00;;;;5121712;28;20279;-81
2023/04/01 05:32:56;;;;;;;0.10;0.10;;;12.70;65.00;12.80;95212.00;;;;5115266;28;20249;-80
2023/04/01 05:35:24;;;;;;;0.10;0.10;;;12.70;65.00;12.80;95206.00;;;;5111468;28;20293;-81
2023/04/01 05:37:51;;;;;;;0.30;0.10;;;12.80;65.00;12.90;95212.00;;;;5119328;28;20234;-80
2023/04/01 05:40:20;;;;;;;0.13;0.13;;;12.80;65.10;12.90;95210.00;;;;5133167;28;20224;-80
2023/04/01 05:42:49;;;;;;;0.53;0.10;;;12.90;65.20;13.00;95216.00;;;;5120426;28;20190;-81
2023/04/01 05:45:18;;;;;;;1.30;0.27;;;12.90;65.00;13.00;95209.00;;;;5114425;28;20620;-80
2023/04/01 05:47:45;;;;;;;0.17;0.17;;;12.90;64.90;13.10;95210.00;;;;5129775;27;20214;-79
2023/04/01 05:50:13;;;;;;;0.83;0.40;;;13.00;64.90;13.10;95218.00;;;;5119926;27;20221;-80
2023/04/01 05:52:41;;;;;;;0.50;0.20;;;13.00;64.90;13.20;95227.00;;;;5136831;27;20658;-80
2023/04/01 05:55:09;;;;;;;0.30;0.30;;;13.10;64.90;13.20;95223.00;;;;5118505;27;20203;-81
2023/04/01 05:57:36;;;;;;;0.40;0.40;;;13.10;64.80;13.30;95214.00;;;;5110841;27;20282;-82
2023/04/01 06:00:05;;;;;;;0.70;0.60;;;13.20;64.90;13.30;95211.00;;;;5117390;28;20692;-81
2023/04/01 06:02:34;;;;;;;0.53;0.50;;;13.20;64.80;13.40;95212.00;;;;5133826;27;20284;-81
2023/04/01 06:05:16;;;;;;;0.40;0.40;;;13.20;64.70;13.40;95226.00;;;;5113301;28;20248;-81
2023/04/01 06:07:46;;;;;;;1.53;0.30;;;13.30;64.50;13.40;95226.00;;;;5116827;27;20219;-78
2023/04/01 06:10:18;;;;;;;1.53;0.27;;;13.30;64.40;13.40;95218.00;;;;5115242;28;20297;-81
2023/04/01 06:13:07;;;;;;;0.90;0.40;;;13.30;64.30;13.50;95217.00;;;;5114357;27;20256;-79
2023/04/01 06:15:41;;;;;;;0.30;0.30;;;13.40;64.30;13.60;95228.00;;;;5113169;27;20285;-81
2023/04/01 06:19:00;;;;;;;0.50;0.30;;;13.50;64.30;13.70;95229.00;;;;5127142;27;20294;-79
2023/04/01 06:22:25;;;;;;;0.40;0.17;;;13.50;63.70;13.70;95231.00;;;;5107395;28;20817;-81
2023/04/01 06:25:53;;;;;;;1.03;0.40;;;13.60;63.80;13.70;95225.00;;;;5101729;27;20186;-80
2023/04/01 06:29:02;;;;;;;0.37;0.23;;;13.60;63.60;13.70;95235.00;;;;5069575;27;20311;-81
2023/04/01 06:31:53;;;;;;;0.47;0.17;;;13.70;63.70;13.80;95229.00;;;;5136245;27;20186;-80
2023/04/01 06:34:55;;;;;;;0.30;0.20;;;13.70;63.50;13.80;95225.00;;;;5138768;27;20194;-81
2023/04/01 06:37:59;;;;;;;0.90;0.40;;;13.70;63.20;13.80;95225.00;;;;5119338;28;20233;-81
2023/04/01 06:41:17;;;;;;;0.40;0.20;;;13.70;63.20;13.90;95223.00;;;;5106778;28;20211;-81
2023/04/01 06:44:00;;;;;;;0.37;0.37;;;13.80;63.10;13.90;95236.00;;;;5109362;27;20320;-81
2023/04/01 06:46:42;;;;;;;0.37;0.30;;;13.80;63.10;13.90;95232.00;;;;5103883;27;20195;-80
2023/04/01 06:49:34;;;;;;;1.37;0.50;;;13.80;63.20;13.90;95225.00;;;;5117551;28;20222;-80
2023/04/01 06:52:16;;;;;;;0.70;0.50;;;13.90;62.90;14.00;95242.00;;;;5121079;27;20229;-80
2023/04/01 06:54:49;;;;;;;1.57;1.00;;;13.90;63.00;14.00;95236.00;;;;5127505;27;20225;-80
2023/04/01 06:57:32;;;;;;;0.87;0.60;;;13.90;62.90;14.00;95236.00;;;;5131496;27;20232;-83
2023/04/01 07:00:01;;;;;;;0.90;0.70;;;13.90;62.80;14.10;95241.00;;;;5121529;28;20234;-81
2023/04/01 07:02:42;;;;;;;2.47;1.13;;;14.00;63.00;14.20;95243.00;;;;5126465;27;20225;-81
2023/04/01 07:05:14;;;;;;;2.70;1.33;;;14.00;62.70;14.30;95227.00;;;;5115008;28;20229;-83
2023/04/01 07:07:55;;;;;;;2.53;1.33;;;14.10;62.60;14.40;95234.00;;;;5120533;27;20242;-81
2023/04/01 07:10:35;;;;;;;2.03;1.30;;;14.10;62.60;14.50;95245.00;;;;5127913;27;20686;-82
2023/04/01 07:13:09;;;;;;;2.03;0.90;;;14.20;62.50;14.60;95244.00;;;;5107113;28;20224;-82
2023/04/01 07:15:42;;;;;;;0.97;0.80;;;14.30;62.40;14.70;95244.00;;;;5098543;28;20194;-83
2023/04/01 07:18:18;;;;;;;0.77;0.60;;;14.40;62.00;14.70;95244.00;;;;5117283;28;20203;-82
2023/04/01 07:20:50;;;;;;;0.60;0.47;;;14.50;61.60;14.70;95245.00;;;;5114555;27;20722;-81
2023/04/01 07:23:25;;;;;;;1.27;0.40;;;14.50;60.60;14.80;95250.00;;;;5118740;28;20218;-81
2023/04/01 07:25:59;;;;;;;0.60;0.40;;;14.60;60.70;14.80;95235.00;;;;5103102;28;20197;-80
2023/04/01 07:28:34;;;;;;;0.30;0.20;;;14.60;61.10;14.90;95238.00;;;;5117531;27;20215;-79
2023/04/01 07:31:17;;;;;;;0.93;0.53;;;14.70;61.30;15.00;95251.00;;;;5119306;28;20200;-80
2023/04/01 07:33:56;;;;;;;0.50;0.30;;;14.70;61.20;15.20;95236.00;;;;5132241;27;20186;-81
2023/04/01 07:36:38;;;;;;;0.87;0.30;;;14.80;60.90;15.20;95253.00;;;;5124233;27;20732;-83
2023/04/01 07:39:26;;;;;;;1.10;0.50;;;14.90;60.50;15.20;95255.00;;;;5115371;28;20620;-82
2023/04/01 07:42:05;;;;;;;1.33;0.40;;;15.00;60.30;15.30;95253.00;;;;5105029;28;20209;-83
2023/04/01 07:44:50;;;;;;;0.47;0.23;;;15.00;60.30;15.40;95253.00;;;;5140674;27;20194;-82
2023/04/01 07:47:44;;;;;;;0.60;0.47;;;15.10;60.10;15.50;95260.00;;;;5106373;27;21220;-82
2023/04/01 07:50:23;;;;;;;1.70;0.40;;;15.20;59.90;15.60;95255.00;;;;5118618;27;20210;-82
2023/04/01 07:53:10;;;;;;;0.30;0.20;;;15.30;59.80;15.70;95252.00;;;;5130443;27;20207;-83
2023/04/01 07:55:47;;;;;;;0.63;0.40;;;15.40;59.60;15.80;95251.00;;;;5121336;27;20786;-81
2023/04/01 07:58:26;;;;;;;0.83;0.33;;;15.40;59.40;15.80;95263.00;;;;5086563;28;20198;-83
2023/04/01 08:01:02;;;;;;;0.27;0.27;;;15.50;60.00;15.90;95253.00;;;;5119915;27;20249;-82
2023/04/01 08:04:00;;;;;;;0.53;0.40;;;15.60;59.50;15.90;95262.00;;;;5128414;27;20193;-81
2023/04/01 08:06:37;;;;;;;0.63;0.40;;;15.60;58.60;15.90;95248.00;;;;5120862;28;20570;-82
2023/04/01 08:09:16;;;;;;;0.90;0.40;;;15.70;58.50;15.90;95262.00;;;;5124419;27;20312;-83
2023/04/01 08:12:04;;;;;;;0.93;0.40;;;15.70;58.50;15.90;95255.00;;;;5113325;28;20184;-80
2023/04/01 08:14:42;;;;;;;0.23;0.23;;;15.70;58.40;16.00;95250.00;;;;5118773;28;20237;-81
2023/04/01 08:17:17;;;;;;;0.43;0.20;;;15.70;58.50;16.00;95252.00;;;;5119256;28;20251;-81
2023/04/01 08:20:11;;;;;;;0.93;0.30;;;15.70;58.30;16.00;95248.00;;;;5124311;27;20220;-80
2023/04/01 08:22:43;;;;;;;0.53;0.50;;;15.70;58.20;16.00;95258.00;;;;5120599;27;20190;-81
2023/04/01 08:25:23;;;;;;;1.47;0.40;;;15.80;58.50;16.00;95256.00;;;;5122247;27;20270;-80
2023/04/01 08:27:56;;;;;;;0.37;0.33;;;15.80;58.20;16.00;95254.00;;;;5111614;28;20222;-80
2023/04/01 08:30:40;;;;;;;0.70;0.30;;;15.80;58.00;16.00;95259.00;;;;5121711;27;20699;-81
2023/04/01 08:33:17;;;;;;;0.73;0.30;;;15.80;58.00;16.10;95255.00;;;;5115959;27;20193;-81
2023/04/01 08:35:52;;;;;;;0.33;0.20;;;15.80;57.50;16.00;95263.00;;;;5125009;28;20282;-80
2023/04/01 08:38:29;;;;;;;0.53;0.30;;;15.80;57.50;16.00;95268.00;;;;5122931;27;20228;-81
2023/04/01 08:41:22;;;;;;;0.30;0.30;;;15.80;57.30;16.00;95246.00;;;;5099584;28;20852;-81
2023/04/01 08:44:43;;;;;;;0.40;0.30;;;15.90;57.30;16.10;95259.00;;;;5118798;28;20194;-80
2023/04/01 08:47:48;;;;;;;0.60;0.20;;;15.90;57.60;16.20;95235.00;;;;5108588;28;20283;-81
2023/04/01 08:50:45;;;;;;;0.63;0.33;;;15.90;57.30;16.30;95241.00;;;;5103395;28;20710;-81
2023/04/01 08:53:28;;;;;;;0.40;0.40;;;16.00;57.50;16.30;95232.00;;;;5112349;28;20290;-80
2023/04/01 08:56:16;;;;;;;0.20;0.20;;;16.00;57.30;16.40;95235.00;;;;5121042;28;20567;-81
2023/04/01 08:59:18;;;;;;;0.57;0.40;;;16.10;57.00;16.40;95249.00;;;;5126924;28;20202;-81
2023/04/01 09:02:31;;;;;;;0.20;0.13;;;16.10;56.80;16.40;95253.00;;;;5119016;28;20186;-79
2023/04/01 09:05:38;;;;;;;0.90;0.60;;;16.10;57.00;16.40;95231.00;;;;5112225;28;20238;-81
2023/04/01 09:08:26;;;;;;;0.33;0.33;;;16.20;56.70;16.40;95246.00;;;;5093283;28;20248;-81
2023/04/01 09:11:24;;;;;;;0.40;0.30;;;16.20;56.90;16.40;95237.00;;;;5139282;27;20233;-81
2023/04/01 09:14:30;;;;;;;0.30;0.30;;;16.10;56.60;16.40;95233.00;;;;5121723;27;20194;-81
2023/04/01 09:17:37;;;;;;;0.20;0.10;;;16.20;56.30;16.60;95236.00;;;;5124045;28;20277;-81
2023/04/01 09:20:33;;;;;;;0.20;0.10;;;16.30;56.60;16.70;95238.00;;;;5127476;28;20297;-81
2023/04/01 09:23:39;;;;;;;0.20;0.20;;;16.30;56.90;16.90;95230.00;;;;5080388;28;20226;-81
2023/04/01 09:26:45;;;;;;;0.10;0.10;;;16.40;57.10;17.10;95221.00;;;;5114499;27;20208;-81
2023/04/01 09:29:31;;;;;;;0.30;0.20;;;16.60;56.90;17.20;95229.00;;;;5126742;27;20221;-81
2023/04/01 09:32:27;;;;;;;0.67;0.30;;;16.70;56.60;17.20;95232.00;;;;5131621;27;20221;-81
2023/04/01 09:35:06;;;;;;;0.77;0.20;;;16.80;56.20;17.30;95222.00;;;;5126750;28;20274;-80
2023/04/01 09:37:50;;;;;;;0.30;0.20;;;16.80;56.60;17.30;95226.00;;;;5126737;28;20251;-80
2023/04/01 09:40:32;;;;;;;0.17;0.10;;;16.80;56.50;17.30;95223.00;;;;5113439;28;20210;-80
2023/04/01 09:43:26;;;;;;;0.40;0.23;;;17.00;56.40;17.40;95229.00;;;;5131179;27;20228;-80
2023/04/01 09:46:21;;;;;;;0.33;0.23;;;17.00;56.40;17.50;95222.00;;;;5140149;27;20278;-82
2023/04/01 09:49:39;;;;;;;0.10;0.10;;;17.00;55.80;17.40;95219.00;;;;5124895;28;20305;-83
2023/04/01 09:52:28;;;;;;;0.20;0.20;;;17.10;54.80;17.40;95212.00;;;;5119847;28;20203;-82
2023/04/01 09:55:20;;;;;;;0.33;0.30;;;17.10;55.30;17.30;95205.00;;;;5142823;27;20248;-80
2023/04/01 09:58:23;;;;;;;0.10;0.10;;;17.10;55.30;17.30;95215.00;;;;5125465;27;20225;-81
2023/04/01 10:01:46;;;;;;;0.10;0.10;;;17.00;55.10;17.30;95221.00;;;;5129968;27;20248;-81
2023/04/01 10:05:08;;;;;;;0.03;0.03;;;17.00;55.40;17.40;95206.00;;;;5138425;27;20205;-80
2023/04/01 10:08:12;;;;;;;0.30;0.20;;;17.10;55.30;17.40;95211.00;;;;5119919;28;20194;-81
2023/04/01 10:11:17;;;;;;;0.10;0.10;;;17.10;55.40;17.50;95198.00;;;;5131260;27;20793;-81
2023/04/01 10:15:06;;;;;;;0.10;0.00;;;17.10;55.30;17.60;95201.00;;;;5127095;27;20689;-80
2023/04/01 10:18:05;;;;;;;0.17;0.17;;;17.20;55.60;17.80;95194.00;;;;5137737;27;20209;-81
2023/04/01 10:20:56;;;;;;;0.17;0.03;;;17.30;56.30;17.90;95193.00;;;;5103389;28;20283;-81
2023/04/01 10:24:04;;;;;;;0.60;0.10;;;17.30;55.30;18.00;95193.00;;;;5138794;27;20201;-79
2023/04/01 10:27:21;;;;;;;0.00;0.00;;;17.40;55.30;18.10;95198.00;;;;5104563;27;20193;-82
2023/04/01 10:30:55;;;;;;;0.07;0.07;;;17.50;55.50;18.10;95193.00;;;;5101370;28;20226;-85
2023/04/01 10:34:43;;;;;;;0.10;0.10;;;17.60;55.10;18.00;95208.00;;;;5128188;27;20214;-83
2023/04/01 10:37:37;;;;;;;0.43;0.20;;;17.70;54.10;17.90;95231.00;;;;5026136;28;20320;-82
2023/04/01 10:40:42;;;;;;;0.00;0.00;;;17.70;54.80;17.80;95203.00;;;;5104860;27;20733;-83
2023/04/01 10:43:51;;;;;;;0.90;0.63;;;17.60;54.00;17.70;95205.00;;;;5135939;27;20270;-82
2023/04/01 10:47:03;;;;;;;1.87;0.77;;;17.60;54.40;17.50;95204.00;;;;5128620;27;20261;-83
2023/04/01 10:50:11;;;;;;;1.70;1.00;;;17.50;54.30;17.40;95207.00;;;;5117024;27;20755;-81
2023/04/01 10:53:32;;;;;;;0.50;0.30;;;17.40;55.00;17.30;95213.00;;;;5115636;28;20293;-81
2023/04/01 10:56:40;;;;;;;0.13;0.13;;;17.30;54.50;17.20;95208.00;;;;5113382;27;20281;-81
2023/04/01 10:59:53;;;;;;;0.37;0.10;;;17.20;54.70;17.10;95195.00;;;;5136702;27;20222;-81
2023/04/01 11:03:46;;;;;;;0.10;0.00;;;17.10;55.30;17.00;95190.00;;;;5143323;27;20419;-83
2023/04/01 11:07:06;;;;;;;0.10;0.00;;;17.00;55.40;16.90;95196.00;;;;5087827;28;20226;-82
2023/04/01 11:10:37;;;;;;;0.17;0.17;;;16.90;55.30;16.80;95217.00;;;;5092402;28;20226;-83
2023/04/01 11:14:02;;;;;;;0.10;0.10;;;16.80;56.00;16.60;95206.00;;;;5087824;28;20226;-82
2023/04/01 11:17:25;;;;;;;0.13;0.10;;;16.70;55.50;16.50;95224.00;;;;5121124;28;20647;-86
2023/04/01 11:20:35;;;;;;;0.53;0.03;;;16.60;56.00;16.40;95248.00;;;;5048264;28;20212;-82
2023/04/01 11:23:36;;;;;;;0.10;0.10;;;16.50;55.90;16.30;95224.00;;;;5083930;28;20278;-82
2023/04/01 11:26:10;;;;;;;0.20;0.20;;;16.40;56.50;16.10;95227.00;;;;5102347;28;20201;-81
2023/04/01 11:29:31;;;;;;;0.70;0.57;;;16.30;56.70;16.10;95217.00;;;;5108111;28;20714;-82
2023/04/01 11:32:16;;;;;;;0.17;0.17;;;16.20;57.50;16.10;95227.00;;;;5065806;28;20225;-82
2023/04/01 11:35:01;;;;;;;0.67;0.00;;;16.10;57.70;16.10;95230.00;;;;5116538;27;20221;-82
2023/04/01 11:37:45;;;;;;;0.00;0.00;;;16.00;58.00;16.10;95226.00;;;;5130151;27;20667;-82
2023/04/01 11:40:28;;;;;;;0.10;0.10;;;16.00;58.40;16.10;95236.00;;;;5114614;28;20267;-81
2023/04/01 11:43:08;;;;;;;0.10;0.10;;;16.00;58.50;16.10;95234.00;;;;5129395;27;20190;-81
2023/04/01 11:45:40;;;;;;;0.10;0.10;;;16.00;58.60;16.00;95245.00;;;;5093122;28;20240;-81
2023/04/01 11:48:58;;;;;;;0.10;0.10;;;15.90;58.50;16.00;95229.00;;;;5096194;27;20724;-84
2023/04/01 11:51:59;;;;;;;0.13;0.13;;;15.90;58.50;15.80;95260.00;;;;5095195;27;20261;-81
2023/04/01 11:55:17;;;;;;;0.07;0.00;;;15.80;58.40;15.70;95254.00;;;;5119598;27;20196;-81
2023/04/01 11:58:20;;;;;;;0.00;0.00;;;15.80;58.80;15.50;95248.00;;;;5093861;28;20222;-81